sensor_id;sensor_type;location;lat;lon;timestamp;P1;durP1;ratioP1;P2;durP2;ratioP2
47309;SDS011;33046;52.270;6.832;2022-09-13T00:00:31;6.30;;;5.70;;
47309;SDS011;33046;52.270;6.832;2022-09-13T00:02:38;7.18;;;6.47;;
47309;SDS011;33046;52.270;6.832;2022-09-13T00:04:45;8.43;;;6.07;;
47309;SDS011;33046;52.270;6.832;2022-09-13T00:06:52;8.45;;;6.85;;
47309;SDS011;33046;52.270;6.832;2022-09-13T00:09:00;6.70;;;6.10;;
47309;SDS011;33046;52.270;6.832;2022-09-13T00:11:07;6.65;;;6.10;;
47309;SDS011;33046;52.270;6.832;2022-09-13T00:13:20;8.23;;;7.40;;
47309;SDS011;33046;52.270;6.832;2022-09-13T00:15:27;7.65;;;6.95;;
47309;SDS011;33046;52.270;6.832;2022-09-13T00:17:34;11.00;;;7.68;;
47309;SDS011;33046;52.270;6.832;2022-09-13T00:19:41;8.73;;;7.93;;
47309;SDS011;33046;52.270;6.832;2022-09-13T00:21:48;8.98;;;8.18;;
47309;SDS011;33046;52.270;6.832;2022-09-13T00:23:55;7.53;;;6.85;;
47309;SDS011;33046;52.270;6.832;2022-09-13T00:26:07;9.77;;;8.70;;
47309;SDS011;33046;52.270;6.832;2022-09-13T00:28:15;8.18;;;7.43;;
47309;SDS011;33046;52.270;6.832;2022-09-13T00:30:21;7.95;;;7.22;;
47309;SDS011;33046;52.270;6.832;2022-09-13T00:35:00;8.48;;;7.65;;
47309;SDS011;33046;52.270;6.832;2022-09-13T00:37:07;8.77;;;8.00;;
47309;SDS011;33046;52.270;6.832;2022-09-13T00:39:14;9.70;;;8.73;;
47309;SDS011;33046;52.270;6.832;2022-09-13T00:41:22;9.18;;;8.23;;
47309;SDS011;33046;52.270;6.832;2022-09-13T00:43:40;9.77;;;8.98;;
47309;SDS011;33046;52.270;6.832;2022-09-13T00:45:49;8.88;;;8.13;;
47309;SDS011;33046;52.270;6.832;2022-09-13T00:47:56;9.98;;;9.00;;
47309;SDS011;33046;52.270;6.832;2022-09-13T00:50:08;10.27;;;9.38;;
47309;SDS011;33046;52.270;6.832;2022-09-13T00:52:19;10.15;;;9.25;;
47309;SDS011;33046;52.270;6.832;2022-09-13T00:54:29;9.57;;;8.68;;
47309;SDS011;33046;52.270;6.832;2022-09-13T00:56:43;9.35;;;8.52;;
47309;SDS011;33046;52.270;6.832;2022-09-13T00:58:53;10.05;;;9.13;;
47309;SDS011;33046;52.270;6.832;2022-09-13T01:01:04;11.93;;;10.93;;
47309;SDS011;33046;52.270;6.832;2022-09-13T01:03:15;12.23;;;10.88;;
47309;SDS011;33046;52.270;6.832;2022-09-13T01:05:29;14.25;;;10.73;;
47309;SDS011;33046;52.270;6.832;2022-09-13T01:07:39;12.23;;;11.03;;
47309;SDS011;33046;52.270;6.832;2022-09-13T01:09:47;11.63;;;10.52;;
47309;SDS011;33046;52.270;6.832;2022-09-13T01:11:58;11.32;;;10.23;;
47309;SDS011;33046;52.270;6.832;2022-09-13T01:14:09;10.45;;;9.45;;
47309;SDS011;33046;52.270;6.832;2022-09-13T01:16:16;12.07;;;9.55;;
47309;SDS011;33046;52.270;6.832;2022-09-13T01:18:23;10.38;;;9.48;;
47309;SDS011;33046;52.270;6.832;2022-09-13T01:20:44;9.98;;;9.07;;
47309;SDS011;33046;52.270;6.832;2022-09-13T01:23:05;10.43;;;9.45;;
47309;SDS011;33046;52.270;6.832;2022-09-13T01:28:24;8.73;;;7.93;;
47309;SDS011;33046;52.270;6.832;2022-09-13T01:30:59;10.32;;;9.23;;
47309;SDS011;33046;52.270;6.832;2022-09-13T01:33:15;9.88;;;8.98;;
47309;SDS011;33046;52.270;6.832;2022-09-13T01:38:14;9.20;;;8.40;;
47309;SDS011;33046;52.270;6.832;2022-09-13T01:40:41;8.80;;;8.02;;
47309;SDS011;33046;52.270;6.832;2022-09-13T01:43:03;10.27;;;9.43;;
47309;SDS011;33046;52.270;6.832;2022-09-13T01:45:22;10.35;;;9.52;;
47309;SDS011;33046;52.270;6.832;2022-09-13T01:47:37;10.00;;;9.02;;
47309;SDS011;33046;52.270;6.832;2022-09-13T01:49:57;10.90;;;9.90;;
47309;SDS011;33046;52.270;6.832;2022-09-13T01:52:14;10.40;;;9.35;;
47309;SDS011;33046;52.270;6.832;2022-09-13T01:54:29;11.75;;;10.65;;
47309;SDS011;33046;52.270;6.832;2022-09-13T01:56:44;11.88;;;9.73;;
47309;SDS011;33046;52.270;6.832;2022-09-13T01:59:00;10.02;;;9.23;;
47309;SDS011;33046;52.270;6.832;2022-09-13T02:01:12;10.40;;;9.13;;
47309;SDS011;33046;52.270;6.832;2022-09-13T02:03:23;12.82;;;11.65;;
47309;SDS011;33046;52.270;6.832;2022-09-13T02:05:34;11.00;;;10.05;;
47309;SDS011;33046;52.270;6.832;2022-09-13T02:07:46;10.68;;;9.57;;
47309;SDS011;33046;52.270;6.832;2022-09-13T02:09:59;16.25;;;11.43;;
47309;SDS011;33046;52.270;6.832;2022-09-13T02:12:12;12.85;;;11.55;;
47309;SDS011;33046;52.270;6.832;2022-09-13T02:14:21;13.38;;;11.27;;
47309;SDS011;33046;52.270;6.832;2022-09-13T02:16:33;15.60;;;12.50;;
47309;SDS011;33046;52.270;6.832;2022-09-13T02:18:45;11.98;;;10.77;;
47309;SDS011;33046;52.270;6.832;2022-09-13T02:23:06;11.57;;;10.57;;
47309;SDS011;33046;52.270;6.832;2022-09-13T02:25:16;12.15;;;11.05;;
47309;SDS011;33046;52.270;6.832;2022-09-13T02:27:26;12.32;;;11.13;;
47309;SDS011;33046;52.270;6.832;2022-09-13T02:29:38;13.40;;;12.10;;
47309;SDS011;33046;52.270;6.832;2022-09-13T02:31:48;14.93;;;13.35;;
47309;SDS011;33046;52.270;6.832;2022-09-13T02:34:02;13.70;;;12.25;;
47309;SDS011;33046;52.270;6.832;2022-09-13T02:36:13;14.33;;;12.90;;
47309;SDS011;33046;52.270;6.832;2022-09-13T02:38:26;13.07;;;11.98;;
47309;SDS011;33046;52.270;6.832;2022-09-13T02:40:38;13.60;;;12.30;;
47309;SDS011;33046;52.270;6.832;2022-09-13T02:42:49;13.27;;;12.05;;
47309;SDS011;33046;52.270;6.832;2022-09-13T02:44:58;13.85;;;11.52;;
47309;SDS011;33046;52.270;6.832;2022-09-13T02:47:07;12.65;;;10.90;;
47309;SDS011;33046;52.270;6.832;2022-09-13T02:49:23;12.77;;;11.05;;
47309;SDS011;33046;52.270;6.832;2022-09-13T02:51:36;11.05;;;10.05;;
47309;SDS011;33046;52.270;6.832;2022-09-13T02:53:51;11.20;;;10.15;;
47309;SDS011;33046;52.270;6.832;2022-09-13T02:56:04;10.73;;;9.77;;
47309;SDS011;33046;52.270;6.832;2022-09-13T02:58:24;12.45;;;10.98;;
47309;SDS011;33046;52.270;6.832;2022-09-13T03:00:37;11.45;;;9.35;;
47309;SDS011;33046;52.270;6.832;2022-09-13T03:02:44;10.13;;;9.13;;
47309;SDS011;33046;52.270;6.832;2022-09-13T03:04:55;11.23;;;10.27;;
47309;SDS011;33046;52.270;6.832;2022-09-13T03:07:04;9.85;;;8.95;;
47309;SDS011;33046;52.270;6.832;2022-09-13T03:09:15;10.32;;;9.32;;
47309;SDS011;33046;52.270;6.832;2022-09-13T03:11:23;12.60;;;9.43;;
47309;SDS011;33046;52.270;6.832;2022-09-13T03:16:20;11.07;;;10.15;;
47309;SDS011;33046;52.270;6.832;2022-09-13T03:18:44;11.27;;;10.15;;
47309;SDS011;33046;52.270;6.832;2022-09-13T03:21:00;10.98;;;9.77;;
47309;SDS011;33046;52.270;6.832;2022-09-13T03:23:21;12.05;;;10.88;;
47309;SDS011;33046;52.270;6.832;2022-09-13T03:25:42;11.65;;;10.45;;
47309;SDS011;33046;52.270;6.832;2022-09-13T03:30:13;12.80;;;11.48;;
47309;SDS011;33046;52.270;6.832;2022-09-13T03:32:23;12.10;;;11.05;;
47309;SDS011;33046;52.270;6.832;2022-09-13T03:34:40;11.18;;;9.52;;
47309;SDS011;33046;52.270;6.832;2022-09-13T03:36:55;12.35;;;11.25;;
47309;SDS011;33046;52.270;6.832;2022-09-13T03:39:07;11.27;;;10.27;;
47309;SDS011;33046;52.270;6.832;2022-09-13T03:41:21;12.02;;;9.73;;
47309;SDS011;33046;52.270;6.832;2022-09-13T03:43:32;11.73;;;10.65;;
47309;SDS011;33046;52.270;6.832;2022-09-13T03:45:44;10.52;;;9.65;;
47309;SDS011;33046;52.270;6.832;2022-09-13T03:47:54;11.43;;;10.52;;
47309;SDS011;33046;52.270;6.832;2022-09-13T03:50:02;10.70;;;9.63;;
47309;SDS011;33046;52.270;6.832;2022-09-13T03:52:13;11.43;;;10.43;;
47309;SDS011;33046;52.270;6.832;2022-09-13T03:54:21;11.18;;;10.18;;
47309;SDS011;33046;52.270;6.832;2022-09-13T03:56:29;10.85;;;9.70;;
47309;SDS011;33046;52.270;6.832;2022-09-13T03:58:36;11.00;;;9.93;;
47309;SDS011;33046;52.270;6.832;2022-09-13T04:00:43;12.25;;;11.15;;
47309;SDS011;33046;52.270;6.832;2022-09-13T04:02:51;11.38;;;10.38;;
47309;SDS011;33046;52.270;6.832;2022-09-13T04:04:57;11.98;;;10.18;;
47309;SDS011;33046;52.270;6.832;2022-09-13T04:07:04;11.32;;;10.27;;
47309;SDS011;33046;52.270;6.832;2022-09-13T04:09:12;10.40;;;9.40;;
47309;SDS011;33046;52.270;6.832;2022-09-13T04:11:19;10.95;;;10.05;;
47309;SDS011;33046;52.270;6.832;2022-09-13T04:13:26;15.45;;;11.20;;
47309;SDS011;33046;52.270;6.832;2022-09-13T04:15:33;11.38;;;10.38;;
47309;SDS011;33046;52.270;6.832;2022-09-13T04:17:40;11.10;;;10.00;;
47309;SDS011;33046;52.270;6.832;2022-09-13T04:19:47;10.93;;;9.88;;
47309;SDS011;33046;52.270;6.832;2022-09-13T04:21:54;11.10;;;10.00;;
47309;SDS011;33046;52.270;6.832;2022-09-13T04:24:01;10.80;;;9.70;;
47309;SDS011;33046;52.270;6.832;2022-09-13T04:26:09;11.55;;;9.40;;
47309;SDS011;33046;52.270;6.832;2022-09-13T04:28:16;12.30;;;10.82;;
47309;SDS011;33046;52.270;6.832;2022-09-13T04:30:23;11.18;;;10.02;;
47309;SDS011;33046;52.270;6.832;2022-09-13T04:32:30;10.90;;;9.82;;
47309;SDS011;33046;52.270;6.832;2022-09-13T04:34:37;11.10;;;10.00;;
47309;SDS011;33046;52.270;6.832;2022-09-13T04:36:44;9.93;;;8.95;;
47309;SDS011;33046;52.270;6.832;2022-09-13T04:38:51;11.70;;;10.60;;
47309;SDS011;33046;52.270;6.832;2022-09-13T04:40:58;12.50;;;11.35;;
47309;SDS011;33046;52.270;6.832;2022-09-13T04:43:06;12.15;;;10.95;;
47309;SDS011;33046;52.270;6.832;2022-09-13T04:45:13;11.05;;;9.95;;
47309;SDS011;33046;52.270;6.832;2022-09-13T04:47:19;11.65;;;10.55;;
47309;SDS011;33046;52.270;6.832;2022-09-13T04:49:26;12.02;;;10.90;;
47309;SDS011;33046;52.270;6.832;2022-09-13T04:51:33;11.98;;;10.82;;
47309;SDS011;33046;52.270;6.832;2022-09-13T04:53:40;12.57;;;11.30;;
47309;SDS011;33046;52.270;6.832;2022-09-13T04:55:46;11.90;;;10.80;;
47309;SDS011;33046;52.270;6.832;2022-09-13T04:57:53;12.05;;;10.73;;
47309;SDS011;33046;52.270;6.832;2022-09-13T05:00:02;11.55;;;10.60;;
47309;SDS011;33046;52.270;6.832;2022-09-13T05:02:10;12.00;;;10.85;;
47309;SDS011;33046;52.270;6.832;2022-09-13T05:04:16;11.13;;;10.02;;
47309;SDS011;33046;52.270;6.832;2022-09-13T05:06:23;10.63;;;9.65;;
47309;SDS011;33046;52.270;6.832;2022-09-13T05:08:30;10.30;;;9.40;;
47309;SDS011;33046;52.270;6.832;2022-09-13T05:10:37;10.15;;;9.25;;
47309;SDS011;33046;52.270;6.832;2022-09-13T05:12:44;10.65;;;8.95;;
47309;SDS011;33046;52.270;6.832;2022-09-13T05:14:50;10.32;;;9.45;;
47309;SDS011;33046;52.270;6.832;2022-09-13T05:16:59;10.48;;;9.50;;
47309;SDS011;33046;52.270;6.832;2022-09-13T05:19:06;11.63;;;10.52;;
47309;SDS011;33046;52.270;6.832;2022-09-13T05:21:12;10.93;;;9.98;;
47309;SDS011;33046;52.270;6.832;2022-09-13T05:23:19;10.07;;;9.07;;
47309;SDS011;33046;52.270;6.832;2022-09-13T05:25:26;12.85;;;11.30;;
47309;SDS011;33046;52.270;6.832;2022-09-13T05:27:33;15.73;;;13.13;;
47309;SDS011;33046;52.270;6.832;2022-09-13T05:29:40;14.30;;;12.63;;
47309;SDS011;33046;52.270;6.832;2022-09-13T05:31:47;15.23;;;13.82;;
47309;SDS011;33046;52.270;6.832;2022-09-13T05:33:57;15.32;;;14.00;;
47309;SDS011;33046;52.270;6.832;2022-09-13T05:36:06;15.15;;;13.68;;
47309;SDS011;33046;52.270;6.832;2022-09-13T05:38:12;16.05;;;14.52;;
47309;SDS011;33046;52.270;6.832;2022-09-13T05:40:19;16.77;;;15.10;;
47309;SDS011;33046;52.270;6.832;2022-09-13T05:42:26;17.60;;;15.90;;
47309;SDS011;33046;52.270;6.832;2022-09-13T05:44:33;17.17;;;15.57;;
47309;SDS011;33046;52.270;6.832;2022-09-13T05:46:40;16.20;;;14.70;;
47309;SDS011;33046;52.270;6.832;2022-09-13T05:48:47;17.63;;;16.02;;
47309;SDS011;33046;52.270;6.832;2022-09-13T05:50:55;19.92;;;17.45;;
47309;SDS011;33046;52.270;6.832;2022-09-13T05:53:08;17.10;;;15.30;;
47309;SDS011;33046;52.270;6.832;2022-09-13T05:55:15;19.13;;;17.13;;
47309;SDS011;33046;52.270;6.832;2022-09-13T05:57:22;17.80;;;15.80;;
47309;SDS011;33046;52.270;6.832;2022-09-13T05:59:28;18.10;;;16.48;;
47309;SDS011;33046;52.270;6.832;2022-09-13T06:01:35;18.70;;;16.90;;
47309;SDS011;33046;52.270;6.832;2022-09-13T06:03:42;18.70;;;16.98;;
47309;SDS011;33046;52.270;6.832;2022-09-13T06:05:49;20.38;;;18.42;;
47309;SDS011;33046;52.270;6.832;2022-09-13T06:08:01;18.00;;;16.30;;
47309;SDS011;33046;52.270;6.832;2022-09-13T06:10:08;20.45;;;18.20;;
47309;SDS011;33046;52.270;6.832;2022-09-13T06:12:16;19.83;;;17.92;;
47309;SDS011;33046;52.270;6.832;2022-09-13T06:14:23;20.60;;;18.48;;
47309;SDS011;33046;52.270;6.832;2022-09-13T06:16:29;25.73;;;19.90;;
47309;SDS011;33046;52.270;6.832;2022-09-13T06:18:36;24.35;;;19.50;;
47309;SDS011;33046;52.270;6.832;2022-09-13T06:20:44;21.35;;;19.13;;
47309;SDS011;33046;52.270;6.832;2022-09-13T06:22:51;23.92;;;20.63;;
47309;SDS011;33046;52.270;6.832;2022-09-13T06:24:59;22.77;;;20.40;;
47309;SDS011;33046;52.270;6.832;2022-09-13T06:27:06;24.40;;;21.80;;
47309;SDS011;33046;52.270;6.832;2022-09-13T06:29:13;22.38;;;19.98;;
47309;SDS011;33046;52.270;6.832;2022-09-13T06:31:20;25.08;;;22.30;;
47309;SDS011;33046;52.270;6.832;2022-09-13T06:33:28;22.38;;;20.02;;
47309;SDS011;33046;52.270;6.832;2022-09-13T06:35:35;23.38;;;19.55;;
47309;SDS011;33046;52.270;6.832;2022-09-13T06:37:42;21.33;;;19.20;;
47309;SDS011;33046;52.270;6.832;2022-09-13T06:39:49;25.40;;;21.17;;
47309;SDS011;33046;52.270;6.832;2022-09-13T06:41:57;22.80;;;20.08;;
47309;SDS011;33046;52.270;6.832;2022-09-13T06:44:17;24.55;;;20.15;;
47309;SDS011;33046;52.270;6.832;2022-09-13T06:46:24;23.92;;;20.40;;
47309;SDS011;33046;52.270;6.832;2022-09-13T06:48:32;22.88;;;20.67;;
47309;SDS011;33046;52.270;6.832;2022-09-13T06:50:40;24.30;;;21.85;;
47309;SDS011;33046;52.270;6.832;2022-09-13T06:52:47;24.15;;;20.55;;
47309;SDS011;33046;52.270;6.832;2022-09-13T06:54:54;24.08;;;20.35;;
47309;SDS011;33046;52.270;6.832;2022-09-13T06:57:02;24.70;;;21.08;;
47309;SDS011;33046;52.270;6.832;2022-09-13T06:59:09;23.30;;;18.88;;
47309;SDS011;33046;52.270;6.832;2022-09-13T07:01:17;20.52;;;18.42;;
47309;SDS011;33046;52.270;6.832;2022-09-13T07:03:25;22.40;;;19.58;;
47309;SDS011;33046;52.270;6.832;2022-09-13T07:05:32;22.95;;;18.75;;
47309;SDS011;33046;52.270;6.832;2022-09-13T07:07:39;21.55;;;19.35;;
47309;SDS011;33046;52.270;6.832;2022-09-13T07:09:46;21.80;;;17.63;;
47309;SDS011;33046;52.270;6.832;2022-09-13T07:11:53;17.88;;;16.13;;
47309;SDS011;33046;52.270;6.832;2022-09-13T07:14:03;19.05;;;17.15;;
47309;SDS011;33046;52.270;6.832;2022-09-13T07:16:10;18.92;;;17.13;;
47309;SDS011;33046;52.270;6.832;2022-09-13T07:18:17;20.77;;;18.05;;
47309;SDS011;33046;52.270;6.832;2022-09-13T07:20:24;18.45;;;16.48;;
47309;SDS011;33046;52.270;6.832;2022-09-13T07:22:31;19.63;;;17.73;;
47309;SDS011;33046;52.270;6.832;2022-09-13T07:24:37;21.55;;;18.42;;
47309;SDS011;33046;52.270;6.832;2022-09-13T07:26:44;18.17;;;16.38;;
47309;SDS011;33046;52.270;6.832;2022-09-13T07:28:52;18.50;;;16.65;;
47309;SDS011;33046;52.270;6.832;2022-09-13T07:31:05;19.55;;;17.63;;
47309;SDS011;33046;52.270;6.832;2022-09-13T07:33:12;19.23;;;17.33;;
47309;SDS011;33046;52.270;6.832;2022-09-13T07:35:19;20.02;;;17.85;;
47309;SDS011;33046;52.270;6.832;2022-09-13T07:37:26;19.08;;;17.27;;
47309;SDS011;33046;52.270;6.832;2022-09-13T07:39:33;18.75;;;16.42;;
47309;SDS011;33046;52.270;6.832;2022-09-13T07:41:40;20.25;;;17.77;;
47309;SDS011;33046;52.270;6.832;2022-09-13T07:43:47;20.13;;;18.20;;
47309;SDS011;33046;52.270;6.832;2022-09-13T07:45:55;19.93;;;17.93;;
47309;SDS011;33046;52.270;6.832;2022-09-13T07:48:04;17.83;;;16.13;;
47309;SDS011;33046;52.270;6.832;2022-09-13T07:50:11;18.75;;;16.75;;
47309;SDS011;33046;52.270;6.832;2022-09-13T07:52:18;21.85;;;16.35;;
47309;SDS011;33046;52.270;6.832;2022-09-13T07:54:24;19.27;;;17.10;;
47309;SDS011;33046;52.270;6.832;2022-09-13T07:56:32;17.60;;;15.70;;
47309;SDS011;33046;52.270;6.832;2022-09-13T07:58:41;16.90;;;14.55;;
47309;SDS011;33046;52.270;6.832;2022-09-13T08:00:49;18.92;;;16.88;;
47309;SDS011;33046;52.270;6.832;2022-09-13T08:02:56;17.88;;;15.93;;
47309;SDS011;33046;52.270;6.832;2022-09-13T08:05:05;16.20;;;14.45;;
47309;SDS011;33046;52.270;6.832;2022-09-13T08:07:12;16.38;;;12.55;;
47309;SDS011;33046;52.270;6.832;2022-09-13T08:09:19;15.13;;;13.45;;
47309;SDS011;33046;52.270;6.832;2022-09-13T08:11:26;16.25;;;13.85;;
47309;SDS011;33046;52.270;6.832;2022-09-13T08:13:35;17.58;;;12.95;;
47309;SDS011;33046;52.270;6.832;2022-09-13T08:15:41;16.58;;;11.85;;
47309;SDS011;33046;52.270;6.832;2022-09-13T08:17:49;15.80;;;10.75;;
47309;SDS011;33046;52.270;6.832;2022-09-13T08:19:55;14.15;;;9.95;;
47309;SDS011;33046;52.270;6.832;2022-09-13T08:22:04;15.07;;;10.38;;
47309;SDS011;33046;52.270;6.832;2022-09-13T08:24:12;15.43;;;10.10;;
47309;SDS011;33046;52.270;6.832;2022-09-13T08:26:20;12.68;;;8.27;;
47309;SDS011;33046;52.270;6.832;2022-09-13T08:28:27;12.15;;;8.80;;
47309;SDS011;33046;52.270;6.832;2022-09-13T08:30:34;10.65;;;7.28;;
47309;SDS011;33046;52.270;6.832;2022-09-13T08:32:42;8.55;;;7.03;;
47309;SDS011;33046;52.270;6.832;2022-09-13T08:34:48;9.68;;;6.85;;
47309;SDS011;33046;52.270;6.832;2022-09-13T08:36:55;9.93;;;6.82;;
47309;SDS011;33046;52.270;6.832;2022-09-13T08:39:03;15.45;;;7.88;;
47309;SDS011;33046;52.270;6.832;2022-09-13T08:41:17;11.30;;;6.80;;
47309;SDS011;33046;52.270;6.832;2022-09-13T08:43:43;8.57;;;7.05;;
47309;SDS011;33046;52.270;6.832;2022-09-13T08:45:57;8.75;;;6.80;;
47309;SDS011;33046;52.270;6.832;2022-09-13T08:48:09;9.63;;;6.55;;
47309;SDS011;33046;52.270;6.832;2022-09-13T08:50:21;9.93;;;7.10;;
47309;SDS011;33046;52.270;6.832;2022-09-13T08:52:32;11.48;;;6.05;;
47309;SDS011;33046;52.270;6.832;2022-09-13T08:54:45;7.25;;;4.72;;
47309;SDS011;33046;52.270;6.832;2022-09-13T08:56:53;9.45;;;5.75;;
47309;SDS011;33046;52.270;6.832;2022-09-13T08:59:17;5.90;;;5.10;;
47309;SDS011;33046;52.270;6.832;2022-09-13T09:01:41;6.55;;;5.20;;
47309;SDS011;33046;52.270;6.832;2022-09-13T09:03:57;10.30;;;5.47;;
47309;SDS011;33046;52.270;6.832;2022-09-13T09:06:12;5.70;;;4.35;;
47309;SDS011;33046;52.270;6.832;2022-09-13T09:08:27;7.20;;;4.43;;
47309;SDS011;33046;52.270;6.832;2022-09-13T09:10:40;7.65;;;5.55;;
47309;SDS011;33046;52.270;6.832;2022-09-13T09:12:51;4.30;;;3.90;;
47309;SDS011;33046;52.270;6.832;2022-09-13T09:15:02;5.75;;;3.63;;
47309;SDS011;33046;52.270;6.832;2022-09-13T09:17:15;4.70;;;3.63;;
47309;SDS011;33046;52.270;6.832;2022-09-13T09:19:27;5.25;;;3.60;;
47309;SDS011;33046;52.270;6.832;2022-09-13T09:21:39;6.50;;;3.20;;
47309;SDS011;33046;52.270;6.832;2022-09-13T09:23:48;5.72;;;3.42;;
47309;SDS011;33046;52.270;6.832;2022-09-13T09:26:00;7.22;;;3.90;;
47309;SDS011;33046;52.270;6.832;2022-09-13T09:28:17;4.05;;;3.33;;
47309;SDS011;33046;52.270;6.832;2022-09-13T09:30:24;4.45;;;3.75;;
47309;SDS011;33046;52.270;6.832;2022-09-13T09:32:51;7.85;;;4.18;;
47309;SDS011;33046;52.270;6.832;2022-09-13T09:35:27;4.43;;;3.55;;
47309;SDS011;33046;52.270;6.832;2022-09-13T09:37:44;5.60;;;3.53;;
47309;SDS011;33046;52.270;6.832;2022-09-13T09:39:57;3.42;;;3.13;;
47309;SDS011;33046;52.270;6.832;2022-09-13T09:42:08;6.57;;;4.05;;
47309;SDS011;33046;52.270;6.832;2022-09-13T09:44:18;4.90;;;4.35;;
47309;SDS011;33046;52.270;6.832;2022-09-13T09:46:27;5.13;;;4.13;;
47309;SDS011;33046;52.270;6.832;2022-09-13T09:48:39;4.80;;;3.67;;
47309;SDS011;33046;52.270;6.832;2022-09-13T09:50:50;3.97;;;2.83;;
47309;SDS011;33046;52.270;6.832;2022-09-13T09:53:00;6.07;;;3.50;;
47309;SDS011;33046;52.270;6.832;2022-09-13T09:55:16;5.72;;;3.65;;
47309;SDS011;33046;52.270;6.832;2022-09-13T09:57:50;4.82;;;3.25;;
47309;SDS011;33046;52.270;6.832;2022-09-13T10:00:06;5.45;;;2.65;;
47309;SDS011;33046;52.270;6.832;2022-09-13T10:02:17;5.88;;;2.38;;
47309;SDS011;33046;52.270;6.832;2022-09-13T10:04:26;4.20;;;2.25;;
47309;SDS011;33046;52.270;6.832;2022-09-13T10:06:34;5.15;;;1.92;;
47309;SDS011;33046;52.270;6.832;2022-09-13T10:08:44;3.90;;;1.88;;
47309;SDS011;33046;52.270;6.832;2022-09-13T10:10:59;3.22;;;1.88;;
47309;SDS011;33046;52.270;6.832;2022-09-13T10:13:11;2.78;;;1.70;;
47309;SDS011;33046;52.270;6.832;2022-09-13T10:15:21;2.55;;;1.83;;
47309;SDS011;33046;52.270;6.832;2022-09-13T10:17:30;4.13;;;2.30;;
47309;SDS011;33046;52.270;6.832;2022-09-13T10:19:37;5.10;;;1.67;;
47309;SDS011;33046;52.270;6.832;2022-09-13T10:21:44;3.17;;;1.92;;
47309;SDS011;33046;52.270;6.832;2022-09-13T10:24:14;2.00;;;1.60;;
47309;SDS011;33046;52.270;6.832;2022-09-13T10:26:22;3.95;;;2.15;;
47309;SDS011;33046;52.270;6.832;2022-09-13T10:28:32;4.75;;;2.55;;
47309;SDS011;33046;52.270;6.832;2022-09-13T10:30:43;3.70;;;1.70;;
47309;SDS011;33046;52.270;6.832;2022-09-13T10:32:53;3.25;;;1.30;;
47309;SDS011;33046;52.270;6.832;2022-09-13T10:35:05;5.50;;;2.60;;
47309;SDS011;33046;52.270;6.832;2022-09-13T10:37:21;5.13;;;1.65;;
47309;SDS011;33046;52.270;6.832;2022-09-13T10:39:31;3.10;;;1.23;;
47309;SDS011;33046;52.270;6.832;2022-09-13T10:41:41;5.05;;;0.90;;
47309;SDS011;33046;52.270;6.832;2022-09-13T10:43:58;3.40;;;1.60;;
47309;SDS011;33046;52.270;6.832;2022-09-13T10:46:07;1.52;;;0.70;;
47309;SDS011;33046;52.270;6.832;2022-09-13T10:48:18;2.60;;;0.80;;
47309;SDS011;33046;52.270;6.832;2022-09-13T10:50:26;1.83;;;0.70;;
47309;SDS011;33046;52.270;6.832;2022-09-13T10:52:37;2.95;;;0.95;;
47309;SDS011;33046;52.270;6.832;2022-09-13T10:54:48;3.05;;;0.50;;
47309;SDS011;33046;52.270;6.832;2022-09-13T10:56:55;2.05;;;0.65;;
47309;SDS011;33046;52.270;6.832;2022-09-13T10:59:14;7.63;;;0.60;;
47309;SDS011;33046;52.270;6.832;2022-09-13T11:01:38;3.08;;;1.10;;
47309;SDS011;33046;52.270;6.832;2022-09-13T11:04:04;2.70;;;0.88;;
47309;SDS011;33046;52.270;6.832;2022-09-13T11:06:36;1.33;;;0.47;;
47309;SDS011;33046;52.270;6.832;2022-09-13T11:08:49;3.28;;;0.60;;
47309;SDS011;33046;52.270;6.832;2022-09-13T11:11:05;1.52;;;0.50;;
47309;SDS011;33046;52.270;6.832;2022-09-13T11:13:18;2.03;;;0.88;;
47309;SDS011;33046;52.270;6.832;2022-09-13T11:15:37;3.20;;;0.40;;
47309;SDS011;33046;52.270;6.832;2022-09-13T11:17:58;2.50;;;0.57;;
47309;SDS011;33046;52.270;6.832;2022-09-13T11:20:25;2.45;;;0.50;;
47309;SDS011;33046;52.270;6.832;2022-09-13T11:22:48;2.70;;;0.65;;
47309;SDS011;33046;52.270;6.832;2022-09-13T11:25:02;2.22;;;0.40;;
47309;SDS011;33046;52.270;6.832;2022-09-13T11:27:21;3.03;;;0.80;;
47309;SDS011;33046;52.270;6.832;2022-09-13T11:29:38;2.88;;;0.50;;
47309;SDS011;33046;52.270;6.832;2022-09-13T11:32:00;1.67;;;0.50;;
47309;SDS011;33046;52.270;6.832;2022-09-13T11:34:23;0.68;;;0.30;;
47309;SDS011;33046;52.270;6.832;2022-09-13T11:36:43;1.27;;;0.40;;
47309;SDS011;33046;52.270;6.832;2022-09-13T11:39:01;1.90;;;0.70;;
47309;SDS011;33046;52.270;6.832;2022-09-13T11:41:17;0.50;;;0.22;;
47309;SDS011;33046;52.270;6.832;2022-09-13T11:46:13;0.82;;;0.22;;
47309;SDS011;33046;52.270;6.832;2022-09-13T11:48:36;0.80;;;0.30;;
47309;SDS011;33046;52.270;6.832;2022-09-13T11:50:56;1.95;;;0.32;;
47309;SDS011;33046;52.270;6.832;2022-09-13T11:53:14;2.03;;;0.30;;
47309;SDS011;33046;52.270;6.832;2022-09-13T11:55:49;0.85;;;0.30;;
47309;SDS011;33046;52.270;6.832;2022-09-13T11:58:00;2.30;;;0.50;;
47309;SDS011;33046;52.270;6.832;2022-09-13T12:00:14;2.67;;;0.40;;
47309;SDS011;33046;52.270;6.832;2022-09-13T12:02:26;0.57;;;0.40;;
47309;SDS011;33046;52.270;6.832;2022-09-13T12:04:42;1.40;;;0.30;;
47309;SDS011;33046;52.270;6.832;2022-09-13T12:07:05;3.47;;;0.60;;
47309;SDS011;33046;52.270;6.832;2022-09-13T12:09:19;1.42;;;0.47;;
47309;SDS011;33046;52.270;6.832;2022-09-13T12:11:31;2.95;;;0.40;;
47309;SDS011;33046;52.270;6.832;2022-09-13T12:13:40;1.50;;;0.30;;
47309;SDS011;33046;52.270;6.832;2022-09-13T12:15:50;0.70;;;0.40;;
47309;SDS011;33046;52.270;6.832;2022-09-13T12:18:01;1.25;;;0.40;;
47309;SDS011;33046;52.270;6.832;2022-09-13T12:20:15;0.73;;;0.30;;
47309;SDS011;33046;52.270;6.832;2022-09-13T12:22:39;2.58;;;0.40;;
47309;SDS011;33046;52.270;6.832;2022-09-13T12:24:47;1.23;;;0.30;;
47309;SDS011;33046;52.270;6.832;2022-09-13T12:26:58;1.30;;;0.40;;
47309;SDS011;33046;52.270;6.832;2022-09-13T12:29:10;5.55;;;0.35;;
47309;SDS011;33046;52.270;6.832;2022-09-13T12:31:21;0.85;;;0.30;;
47309;SDS011;33046;52.270;6.832;2022-09-13T12:33:30;0.63;;;0.30;;
47309;SDS011;33046;52.270;6.832;2022-09-13T12:35:40;1.30;;;0.30;;
47309;SDS011;33046;52.270;6.832;2022-09-13T12:38:13;1.65;;;0.35;;
47309;SDS011;33046;52.270;6.832;2022-09-13T12:40:36;4.30;;;0.20;;
47309;SDS011;33046;52.270;6.832;2022-09-13T12:43:00;0.90;;;0.20;;
47309;SDS011;33046;52.270;6.832;2022-09-13T12:45:22;1.15;;;0.20;;
47309;SDS011;33046;52.270;6.832;2022-09-13T12:47:47;2.28;;;0.30;;
47309;SDS011;33046;52.270;6.832;2022-09-13T12:50:10;2.60;;;0.30;;
47309;SDS011;33046;52.270;6.832;2022-09-13T12:52:50;1.52;;;0.57;;
47309;SDS011;33046;52.270;6.832;2022-09-13T12:57:52;0.90;;;0.30;;
47309;SDS011;33046;52.270;6.832;2022-09-13T13:00:10;0.68;;;0.20;;
47309;SDS011;33046;52.270;6.832;2022-09-13T13:02:28;1.13;;;0.20;;
47309;SDS011;33046;52.270;6.832;2022-09-13T13:04:38;4.50;;;0.40;;
47309;SDS011;33046;52.270;6.832;2022-09-13T13:06:47;2.20;;;0.20;;
47309;SDS011;33046;52.270;6.832;2022-09-13T13:09:01;1.65;;;0.22;;
47309;SDS011;33046;52.270;6.832;2022-09-13T13:11:11;3.10;;;0.30;;
47309;SDS011;33046;52.270;6.832;2022-09-13T13:13:19;0.82;;;0.20;;
47309;SDS011;33046;52.270;6.832;2022-09-13T13:20:39;2.92;;;0.30;;
47309;SDS011;33046;52.270;6.832;2022-09-13T13:23:22;2.77;;;0.47;;
47309;SDS011;33046;52.270;6.832;2022-09-13T13:25:34;2.83;;;0.30;;